sensor_id;sensor_type;location;lat;lon;timestamp;P1;durP1;ratioP1;P2;durP2;ratioP2
17414;SDS011;8825;48.086;16.426;2023-02-15T00:00:11;25.57;;;20.35;;
17414;SDS011;8825;48.086;16.426;2023-02-15T00:02:39;29.18;;;22.27;;
17414;SDS011;8825;48.086;16.426;2023-02-15T00:05:07;26.07;;;21.23;;
17414;SDS011;8825;48.086;16.426;2023-02-15T00:07:35;26.50;;;20.65;;
17414;SDS011;8825;48.086;16.426;2023-02-15T00:10:03;26.05;;;21.27;;
17414;SDS011;8825;48.086;16.426;2023-02-15T00:12:51;28.80;;;21.97;;
17414;SDS011;8825;48.086;16.426;2023-02-15T00:15:19;27.48;;;21.82;;
17414;SDS011;8825;48.086;16.426;2023-02-15T00:17:46;25.62;;;21.55;;
17414;SDS011;8825;48.086;16.426;2023-02-15T00:20:14;25.95;;;21.12;;
17414;SDS011;8825;48.086;16.426;2023-02-15T00:22:41;27.73;;;22.65;;
17414;SDS011;8825;48.086;16.426;2023-02-15T00:25:09;26.60;;;21.25;;
17414;SDS011;8825;48.086;16.426;2023-02-15T00:30:23;27.45;;;21.68;;
17414;SDS011;8825;48.086;16.426;2023-02-15T00:32:51;25.72;;;21.05;;
17414;SDS011;8825;48.086;16.426;2023-02-15T00:35:18;27.07;;;20.65;;
17414;SDS011;8825;48.086;16.426;2023-02-15T00:37:46;24.65;;;19.40;;
17414;SDS011;8825;48.086;16.426;2023-02-15T00:40:13;25.00;;;20.90;;
17414;SDS011;8825;48.086;16.426;2023-02-15T00:42:41;26.90;;;21.05;;
17414;SDS011;8825;48.086;16.426;2023-02-15T00:45:08;25.45;;;20.92;;
17414;SDS011;8825;48.086;16.426;2023-02-15T00:47:57;25.90;;;19.98;;
17414;SDS011;8825;48.086;16.426;2023-02-15T00:50:24;27.52;;;22.05;;
17414;SDS011;8825;48.086;16.426;2023-02-15T00:52:52;27.87;;;20.92;;
17414;SDS011;8825;48.086;16.426;2023-02-15T00:55:19;25.80;;;20.52;;
17414;SDS011;8825;48.086;16.426;2023-02-15T00:57:47;24.32;;;19.65;;
17414;SDS011;8825;48.086;16.426;2023-02-15T01:03:02;25.23;;;20.67;;
17414;SDS011;8825;48.086;16.426;2023-02-15T01:05:30;26.40;;;21.30;;
17414;SDS011;8825;48.086;16.426;2023-02-15T01:07:58;27.65;;;21.85;;
17414;SDS011;8825;48.086;16.426;2023-02-15T01:10:26;26.70;;;22.02;;
17414;SDS011;8825;48.086;16.426;2023-02-15T01:12:54;29.60;;;22.93;;
17414;SDS011;8825;48.086;16.426;2023-02-15T01:15:23;28.77;;;22.55;;
17414;SDS011;8825;48.086;16.426;2023-02-15T01:17:51;29.03;;;22.00;;
17414;SDS011;8825;48.086;16.426;2023-02-15T01:20:27;28.60;;;21.93;;
17414;SDS011;8825;48.086;16.426;2023-02-15T01:22:52;27.30;;;22.15;;
17414;SDS011;8825;48.086;16.426;2023-02-15T01:25:22;26.73;;;21.00;;
17414;SDS011;8825;48.086;16.426;2023-02-15T01:27:50;25.12;;;21.68;;
17414;SDS011;8825;48.086;16.426;2023-02-15T01:30:18;25.02;;;20.55;;
17414;SDS011;8825;48.086;16.426;2023-02-15T01:32:45;26.02;;;21.40;;
17414;SDS011;8825;48.086;16.426;2023-02-15T01:35:13;26.77;;;21.95;;
17414;SDS011;8825;48.086;16.426;2023-02-15T01:37:40;27.48;;;21.62;;
17414;SDS011;8825;48.086;16.426;2023-02-15T01:40:11;25.17;;;21.40;;
17414;SDS011;8825;48.086;16.426;2023-02-15T01:42:39;27.00;;;21.40;;
17414;SDS011;8825;48.086;16.426;2023-02-15T01:47:41;27.60;;;21.93;;
17414;SDS011;8825;48.086;16.426;2023-02-15T01:55:33;27.48;;;21.37;;
17414;SDS011;8825;48.086;16.426;2023-02-15T01:58:06;27.32;;;21.68;;
17414;SDS011;8825;48.086;16.426;2023-02-15T02:00:34;25.75;;;21.55;;
17414;SDS011;8825;48.086;16.426;2023-02-15T02:03:02;27.87;;;22.98;;
17414;SDS011;8825;48.086;16.426;2023-02-15T02:05:31;25.50;;;20.65;;
17414;SDS011;8825;48.086;16.426;2023-02-15T02:08:00;28.07;;;23.15;;
17414;SDS011;8825;48.086;16.426;2023-02-15T02:10:28;27.02;;;22.15;;
17414;SDS011;8825;48.086;16.426;2023-02-15T02:13:02;28.02;;;22.10;;
17414;SDS011;8825;48.086;16.426;2023-02-15T02:15:31;24.05;;;20.02;;
17414;SDS011;8825;48.086;16.426;2023-02-15T02:18:03;24.47;;;19.65;;
17414;SDS011;8825;48.086;16.426;2023-02-15T02:20:52;27.48;;;21.45;;
17414;SDS011;8825;48.086;16.426;2023-02-15T02:28:59;27.82;;;22.35;;
17414;SDS011;8825;48.086;16.426;2023-02-15T02:37:23;27.65;;;22.60;;
17414;SDS011;8825;48.086;16.426;2023-02-15T02:42:56;27.73;;;22.48;;
17414;SDS011;8825;48.086;16.426;2023-02-15T02:48:05;27.80;;;22.58;;
17414;SDS011;8825;48.086;16.426;2023-02-15T02:50:34;26.77;;;21.87;;
17414;SDS011;8825;48.086;16.426;2023-02-15T02:53:02;25.00;;;20.85;;
17414;SDS011;8825;48.086;16.426;2023-02-15T02:55:30;27.07;;;21.52;;
17414;SDS011;8825;48.086;16.426;2023-02-15T03:00:49;25.55;;;20.57;;
17414;SDS011;8825;48.086;16.426;2023-02-15T03:05:59;29.50;;;24.20;;
17414;SDS011;8825;48.086;16.426;2023-02-15T03:08:33;30.10;;;23.35;;
17414;SDS011;8825;48.086;16.426;2023-02-15T03:11:02;25.50;;;22.10;;
17414;SDS011;8825;48.086;16.426;2023-02-15T03:13:31;27.10;;;22.75;;
17414;SDS011;8825;48.086;16.426;2023-02-15T03:15:59;26.57;;;22.22;;
17414;SDS011;8825;48.086;16.426;2023-02-15T03:18:47;28.55;;;22.73;;
17414;SDS011;8825;48.086;16.426;2023-02-15T03:21:22;25.65;;;20.50;;
17414;SDS011;8825;48.086;16.426;2023-02-15T03:23:54;26.30;;;21.87;;
17414;SDS011;8825;48.086;16.426;2023-02-15T03:26:23;25.65;;;20.00;;
17414;SDS011;8825;48.086;16.426;2023-02-15T03:28:53;27.70;;;22.70;;
17414;SDS011;8825;48.086;16.426;2023-02-15T03:31:23;32.05;;;24.15;;
17414;SDS011;8825;48.086;16.426;2023-02-15T03:33:57;26.40;;;21.27;;
17414;SDS011;8825;48.086;16.426;2023-02-15T03:36:36;26.62;;;21.35;;
17414;SDS011;8825;48.086;16.426;2023-02-15T03:39:15;27.73;;;22.48;;
17414;SDS011;8825;48.086;16.426;2023-02-15T03:41:45;28.75;;;21.42;;
17414;SDS011;8825;48.086;16.426;2023-02-15T03:44:15;27.07;;;21.45;;
17414;SDS011;8825;48.086;16.426;2023-02-15T03:46:45;30.08;;;23.92;;
17414;SDS011;8825;48.086;16.426;2023-02-15T03:52:08;31.20;;;24.07;;
17414;SDS011;8825;48.086;16.426;2023-02-15T03:54:37;26.85;;;22.58;;
17414;SDS011;8825;48.086;16.426;2023-02-15T03:57:10;27.55;;;21.97;;
17414;SDS011;8825;48.086;16.426;2023-02-15T04:00:18;28.83;;;23.18;;
17414;SDS011;8825;48.086;16.426;2023-02-15T04:05:51;30.88;;;23.47;;
17414;SDS011;8825;48.086;16.426;2023-02-15T04:08:19;27.70;;;22.58;;
17414;SDS011;8825;48.086;16.426;2023-02-15T04:10:48;26.30;;;21.77;;
17414;SDS011;8825;48.086;16.426;2023-02-15T04:13:19;29.15;;;24.27;;
17414;SDS011;8825;48.086;16.426;2023-02-15T04:15:48;26.35;;;21.25;;
17414;SDS011;8825;48.086;16.426;2023-02-15T04:18:39;27.37;;;21.85;;
17414;SDS011;8825;48.086;16.426;2023-02-15T04:21:25;29.67;;;23.32;;
17414;SDS011;8825;48.086;16.426;2023-02-15T04:24:12;27.82;;;21.62;;
17414;SDS011;8825;48.086;16.426;2023-02-15T04:26:58;28.75;;;23.65;;
17414;SDS011;8825;48.086;16.426;2023-02-15T04:29:28;25.23;;;21.52;;
17414;SDS011;8825;48.086;16.426;2023-02-15T04:31:57;24.30;;;20.68;;
17414;SDS011;8825;48.086;16.426;2023-02-15T04:34:26;25.30;;;19.37;;
17414;SDS011;8825;48.086;16.426;2023-02-15T04:36:53;23.80;;;19.42;;
17414;SDS011;8825;48.086;16.426;2023-02-15T04:39:21;22.85;;;18.75;;
17414;SDS011;8825;48.086;16.426;2023-02-15T04:41:48;23.80;;;19.48;;
17414;SDS011;8825;48.086;16.426;2023-02-15T04:44:16;21.20;;;17.50;;
17414;SDS011;8825;48.086;16.426;2023-02-15T04:46:43;23.73;;;19.13;;
17414;SDS011;8825;48.086;16.426;2023-02-15T04:51:58;23.20;;;19.00;;
17414;SDS011;8825;48.086;16.426;2023-02-15T04:54:25;25.37;;;21.00;;
17414;SDS011;8825;48.086;16.426;2023-02-15T04:56:53;23.60;;;19.03;;
17414;SDS011;8825;48.086;16.426;2023-02-15T04:59:20;25.33;;;20.67;;
17414;SDS011;8825;48.086;16.426;2023-02-15T05:01:48;24.60;;;19.70;;
17414;SDS011;8825;48.086;16.426;2023-02-15T05:04:15;24.53;;;20.07;;
17414;SDS011;8825;48.086;16.426;2023-02-15T05:06:43;24.43;;;19.63;;
17414;SDS011;8825;48.086;16.426;2023-02-15T05:09:11;24.47;;;19.10;;
17414;SDS011;8825;48.086;16.426;2023-02-15T05:11:38;23.05;;;19.32;;
17414;SDS011;8825;48.086;16.426;2023-02-15T05:14:06;24.70;;;19.10;;
17414;SDS011;8825;48.086;16.426;2023-02-15T05:19:20;22.23;;;17.73;;
17414;SDS011;8825;48.086;16.426;2023-02-15T05:21:49;24.20;;;19.03;;
17414;SDS011;8825;48.086;16.426;2023-02-15T05:27:22;24.00;;;19.50;;
17414;SDS011;8825;48.086;16.426;2023-02-15T05:30:07;24.73;;;19.30;;
17414;SDS011;8825;48.086;16.426;2023-02-15T05:32:37;23.03;;;18.33;;
17414;SDS011;8825;48.086;16.426;2023-02-15T05:35:05;20.27;;;17.87;;
17414;SDS011;8825;48.086;16.426;2023-02-15T05:37:34;22.40;;;19.10;;
17414;SDS011;8825;48.086;16.426;2023-02-15T05:40:01;21.83;;;18.00;;
17414;SDS011;8825;48.086;16.426;2023-02-15T05:42:29;22.27;;;17.77;;
17414;SDS011;8825;48.086;16.426;2023-02-15T05:44:56;23.85;;;18.87;;
17414;SDS011;8825;48.086;16.426;2023-02-15T05:47:24;21.90;;;18.02;;
17414;SDS011;8825;48.086;16.426;2023-02-15T05:49:51;25.62;;;20.88;;
17414;SDS011;8825;48.086;16.426;2023-02-15T05:52:19;21.25;;;18.55;;
17414;SDS011;8825;48.086;16.426;2023-02-15T05:54:46;23.98;;;18.85;;
17414;SDS011;8825;48.086;16.426;2023-02-15T05:57:14;22.48;;;18.57;;
17414;SDS011;8825;48.086;16.426;2023-02-15T05:59:41;22.80;;;17.98;;
17414;SDS011;8825;48.086;16.426;2023-02-15T06:02:09;22.70;;;19.02;;
17414;SDS011;8825;48.086;16.426;2023-02-15T06:04:37;23.60;;;19.30;;
17414;SDS011;8825;48.086;16.426;2023-02-15T06:07:04;24.27;;;19.83;;
17414;SDS011;8825;48.086;16.426;2023-02-15T06:09:32;25.62;;;19.92;;
17414;SDS011;8825;48.086;16.426;2023-02-15T06:11:59;24.80;;;19.23;;
17414;SDS011;8825;48.086;16.426;2023-02-15T06:14:27;22.42;;;18.02;;
17414;SDS011;8825;48.086;16.426;2023-02-15T06:16:54;21.73;;;18.07;;
17414;SDS011;8825;48.086;16.426;2023-02-15T06:19:22;23.50;;;19.67;;
17414;SDS011;8825;48.086;16.426;2023-02-15T06:21:49;24.45;;;19.35;;
17414;SDS011;8825;48.086;16.426;2023-02-15T06:24:17;23.12;;;18.00;;
17414;SDS011;8825;48.086;16.426;2023-02-15T06:26:44;24.05;;;19.10;;
17414;SDS011;8825;48.086;16.426;2023-02-15T06:29:12;22.52;;;18.40;;
17414;SDS011;8825;48.086;16.426;2023-02-15T06:31:40;24.12;;;19.60;;
17414;SDS011;8825;48.086;16.426;2023-02-15T06:34:08;27.27;;;19.53;;
17414;SDS011;8825;48.086;16.426;2023-02-15T06:36:35;29.07;;;22.17;;
17414;SDS011;8825;48.086;16.426;2023-02-15T06:41:50;26.70;;;21.27;;
17414;SDS011;8825;48.086;16.426;2023-02-15T06:44:17;27.10;;;21.40;;
17414;SDS011;8825;48.086;16.426;2023-02-15T06:46:45;25.13;;;20.73;;
17414;SDS011;8825;48.086;16.426;2023-02-15T06:49:12;26.13;;;20.67;;
17414;SDS011;8825;48.086;16.426;2023-02-15T06:51:40;24.07;;;19.97;;
17414;SDS011;8825;48.086;16.426;2023-02-15T06:54:07;26.87;;;20.80;;
17414;SDS011;8825;48.086;16.426;2023-02-15T06:56:35;23.57;;;19.23;;
17414;SDS011;8825;48.086;16.426;2023-02-15T06:59:02;26.73;;;21.20;;
17414;SDS011;8825;48.086;16.426;2023-02-15T07:01:30;26.27;;;21.13;;
17414;SDS011;8825;48.086;16.426;2023-02-15T07:03:58;24.07;;;20.03;;
17414;SDS011;8825;48.086;16.426;2023-02-15T07:06:25;25.73;;;20.90;;
17414;SDS011;8825;48.086;16.426;2023-02-15T07:08:52;24.93;;;20.53;;
17414;SDS011;8825;48.086;16.426;2023-02-15T07:11:20;26.07;;;19.93;;
17414;SDS011;8825;48.086;16.426;2023-02-15T07:14:05;25.53;;;19.90;;
17414;SDS011;8825;48.086;16.426;2023-02-15T07:16:33;25.40;;;21.23;;
17414;SDS011;8825;48.086;16.426;2023-02-15T07:19:00;29.03;;;22.57;;
17414;SDS011;8825;48.086;16.426;2023-02-15T07:21:28;27.27;;;22.20;;
17414;SDS011;8825;48.086;16.426;2023-02-15T07:23:56;27.20;;;21.80;;
17414;SDS011;8825;48.086;16.426;2023-02-15T07:26:24;23.80;;;19.77;;
17414;SDS011;8825;48.086;16.426;2023-02-15T07:28:52;26.57;;;21.23;;
17414;SDS011;8825;48.086;16.426;2023-02-15T07:31:20;23.77;;;20.23;;
17414;SDS011;8825;48.086;16.426;2023-02-15T07:33:48;27.77;;;21.23;;
17414;SDS011;8825;48.086;16.426;2023-02-15T07:36:15;27.73;;;21.67;;
17414;SDS011;8825;48.086;16.426;2023-02-15T07:38:43;25.97;;;20.70;;
17414;SDS011;8825;48.086;16.426;2023-02-15T07:41:12;27.23;;;22.03;;
17414;SDS011;8825;48.086;16.426;2023-02-15T07:43:41;24.00;;;19.83;;
17414;SDS011;8825;48.086;16.426;2023-02-15T07:46:11;25.53;;;20.23;;
17414;SDS011;8825;48.086;16.426;2023-02-15T07:48:41;22.47;;;18.33;;
17414;SDS011;8825;48.086;16.426;2023-02-15T07:51:10;25.53;;;19.97;;
17414;SDS011;8825;48.086;16.426;2023-02-15T07:53:38;22.03;;;18.47;;
17414;SDS011;8825;48.086;16.426;2023-02-15T07:56:09;25.47;;;20.27;;
17414;SDS011;8825;48.086;16.426;2023-02-15T07:58:37;23.67;;;19.60;;
17414;SDS011;8825;48.086;16.426;2023-02-15T08:01:35;26.30;;;21.30;;
17414;SDS011;8825;48.086;16.426;2023-02-15T08:03:53;24.20;;;20.47;;
17414;SDS011;8825;48.086;16.426;2023-02-15T08:06:22;24.87;;;19.87;;
17414;SDS011;8825;48.086;16.426;2023-02-15T08:08:51;23.73;;;19.87;;
17414;SDS011;8825;48.086;16.426;2023-02-15T08:11:29;26.17;;;20.97;;
17414;SDS011;8825;48.086;16.426;2023-02-15T08:14:12;22.37;;;18.53;;
17414;SDS011;8825;48.086;16.426;2023-02-15T08:16:45;24.37;;;19.33;;
17414;SDS011;8825;48.086;16.426;2023-02-15T08:19:17;22.73;;;18.90;;
17414;SDS011;8825;48.086;16.426;2023-02-15T08:22:10;25.53;;;20.33;;
17414;SDS011;8825;48.086;16.426;2023-02-15T08:24:24;25.20;;;20.67;;
17414;SDS011;8825;48.086;16.426;2023-02-15T08:26:53;25.53;;;20.17;;
17414;SDS011;8825;48.086;16.426;2023-02-15T08:29:22;25.17;;;19.87;;
17414;SDS011;8825;48.086;16.426;2023-02-15T08:31:52;25.63;;;20.43;;
17414;SDS011;8825;48.086;16.426;2023-02-15T08:34:23;23.40;;;18.80;;
17414;SDS011;8825;48.086;16.426;2023-02-15T08:36:51;27.10;;;21.53;;
17414;SDS011;8825;48.086;16.426;2023-02-15T08:39:18;25.00;;;20.07;;
17414;SDS011;8825;48.086;16.426;2023-02-15T08:41:46;25.63;;;20.70;;
17414;SDS011;8825;48.086;16.426;2023-02-15T08:44:15;26.03;;;21.70;;
17414;SDS011;8825;48.086;16.426;2023-02-15T08:46:45;23.70;;;21.00;;
17414;SDS011;8825;48.086;16.426;2023-02-15T08:49:18;24.67;;;19.80;;
17414;SDS011;8825;48.086;16.426;2023-02-15T08:51:44;23.80;;;20.40;;
17414;SDS011;8825;48.086;16.426;2023-02-15T08:54:13;23.23;;;19.20;;
17414;SDS011;8825;48.086;16.426;2023-02-15T08:56:43;25.70;;;21.53;;
17414;SDS011;8825;48.086;16.426;2023-02-15T08:59:13;25.67;;;21.23;;
17414;SDS011;8825;48.086;16.426;2023-02-15T09:01:43;26.40;;;19.87;;
17414;SDS011;8825;48.086;16.426;2023-02-15T09:06:58;26.10;;;19.87;;
17414;SDS011;8825;48.086;16.426;2023-02-15T09:09:25;25.93;;;20.60;;
17414;SDS011;8825;48.086;16.426;2023-02-15T09:11:53;23.13;;;19.63;;
17414;SDS011;8825;48.086;16.426;2023-02-15T09:14:20;25.93;;;20.70;;
17414;SDS011;8825;48.086;16.426;2023-02-15T09:16:51;25.80;;;19.87;;
17414;SDS011;8825;48.086;16.426;2023-02-15T09:19:20;27.73;;;20.50;;
17414;SDS011;8825;48.086;16.426;2023-02-15T09:21:49;23.33;;;18.97;;
17414;SDS011;8825;48.086;16.426;2023-02-15T09:24:17;26.53;;;21.17;;
17414;SDS011;8825;48.086;16.426;2023-02-15T09:27:05;24.23;;;20.33;;
17414;SDS011;8825;48.086;16.426;2023-02-15T09:29:33;22.27;;;18.67;;
17414;SDS011;8825;48.086;16.426;2023-02-15T09:32:00;26.30;;;20.87;;
17414;SDS011;8825;48.086;16.426;2023-02-15T09:34:28;25.90;;;20.20;;
17414;SDS011;8825;48.086;16.426;2023-02-15T09:36:56;26.67;;;21.47;;
17414;SDS011;8825;48.086;16.426;2023-02-15T09:39:24;27.87;;;21.50;;
17414;SDS011;8825;48.086;16.426;2023-02-15T09:42:00;27.20;;;20.93;;
17414;SDS011;8825;48.086;16.426;2023-02-15T09:44:54;26.10;;;20.23;;
17414;SDS011;8825;48.086;16.426;2023-02-15T10:04:17;29.53;;;22.63;;
17414;SDS011;8825;48.086;16.426;2023-02-15T10:09:46;28.43;;;22.13;;
17414;SDS011;8825;48.086;16.426;2023-02-15T10:12:53;25.37;;;19.93;;
17414;SDS011;8825;48.086;16.426;2023-02-15T10:18:27;23.97;;;18.07;;
17414;SDS011;8825;48.086;16.426;2023-02-15T10:21:16;26.07;;;19.53;;
17414;SDS011;8825;48.086;16.426;2023-02-15T10:26:46;26.03;;;19.63;;
17414;SDS011;8825;48.086;16.426;2023-02-15T10:31:49;23.70;;;19.10;;
17414;SDS011;8825;48.086;16.426;2023-02-15T10:37:15;30.97;;;22.50;;
17414;SDS011;8825;48.086;16.426;2023-02-15T10:39:56;29.80;;;22.30;;
17414;SDS011;8825;48.086;16.426;2023-02-15T10:51:25;28.43;;;20.93;;
17414;SDS011;8825;48.086;16.426;2023-02-15T10:53:57;27.67;;;20.80;;
17414;SDS011;8825;48.086;16.426;2023-02-15T10:59:53;28.80;;;20.90;;
17414;SDS011;8825;48.086;16.426;2023-02-15T11:02:42;33.63;;;21.43;;
17414;SDS011;8825;48.086;16.426;2023-02-15T11:06:09;26.07;;;19.33;;
17414;SDS011;8825;48.086;16.426;2023-02-15T11:08:18;29.23;;;21.43;;
17414;SDS011;8825;48.086;16.426;2023-02-15T11:10:59;28.93;;;22.17;;
17414;SDS011;8825;48.086;16.426;2023-02-15T11:13:34;27.50;;;21.37;;
17414;SDS011;8825;48.086;16.426;2023-02-15T11:16:05;26.87;;;20.07;;
17414;SDS011;8825;48.086;16.426;2023-02-15T11:18:51;25.43;;;19.77;;
17414;SDS011;8825;48.086;16.426;2023-02-15T11:22:05;28.83;;;22.43;;
17414;SDS011;8825;48.086;16.426;2023-02-15T11:23:59;30.10;;;23.10;;
17414;SDS011;8825;48.086;16.426;2023-02-15T11:26:30;23.93;;;19.17;;
17414;SDS011;8825;48.086;16.426;2023-02-15T11:29:05;32.00;;;23.70;;
17414;SDS011;8825;48.086;16.426;2023-02-15T11:31:55;27.77;;;21.00;;
17414;SDS011;8825;48.086;16.426;2023-02-15T11:34:50;26.93;;;20.97;;
17414;SDS011;8825;48.086;16.426;2023-02-15T11:37:46;27.33;;;21.17;;
17414;SDS011;8825;48.086;16.426;2023-02-15T11:42:56;28.03;;;22.23;;
17414;SDS011;8825;48.086;16.426;2023-02-15T11:45:29;27.20;;;21.07;;
17414;SDS011;8825;48.086;16.426;2023-02-15T11:48:00;30.53;;;23.67;;
17414;SDS011;8825;48.086;16.426;2023-02-15T11:50:31;32.27;;;23.10;;
17414;SDS011;8825;48.086;16.426;2023-02-15T11:55:54;25.80;;;19.97;;
17414;SDS011;8825;48.086;16.426;2023-02-15T11:58:30;23.50;;;18.77;;
17414;SDS011;8825;48.086;16.426;2023-02-15T12:01:05;26.87;;;19.93;;
17414;SDS011;8825;48.086;16.426;2023-02-15T12:06:33;26.43;;;20.30;;
17414;SDS011;8825;48.086;16.426;2023-02-15T12:11:45;24.30;;;18.03;;
17414;SDS011;8825;48.086;16.426;2023-02-15T12:14:13;24.40;;;19.40;;
17414;SDS011;8825;48.086;16.426;2023-02-15T12:16:47;22.13;;;17.27;;
17414;SDS011;8825;48.086;16.426;2023-02-15T12:19:39;22.63;;;18.33;;
17414;SDS011;8825;48.086;16.426;2023-02-15T12:22:51;23.60;;;18.40;;
17414;SDS011;8825;48.086;16.426;2023-02-15T12:25:32;24.07;;;18.33;;
17414;SDS011;8825;48.086;16.426;2023-02-15T12:27:58;23.03;;;18.93;;
17414;SDS011;8825;48.086;16.426;2023-02-15T12:30:30;24.17;;;19.67;;
17414;SDS011;8825;48.086;16.426;2023-02-15T12:33:04;25.40;;;18.80;;
17414;SDS011;8825;48.086;16.426;2023-02-15T12:35:45;24.30;;;19.93;;
17414;SDS011;8825;48.086;16.426;2023-02-15T12:40:56;23.70;;;17.63;;
17414;SDS011;8825;48.086;16.426;2023-02-15T12:43:32;25.33;;;18.83;;
17414;SDS011;8825;48.086;16.426;2023-02-15T12:46:23;24.70;;;19.20;;
17414;SDS011;8825;48.086;16.426;2023-02-15T12:49:13;24.17;;;18.87;;
17414;SDS011;8825;48.086;16.426;2023-02-15T12:51:54;25.40;;;19.93;;
17414;SDS011;8825;48.086;16.426;2023-02-15T12:54:42;25.67;;;19.47;;
17414;SDS011;8825;48.086;16.426;2023-02-15T12:57:21;22.93;;;19.07;;
17414;SDS011;8825;48.086;16.426;2023-02-15T12:59:52;24.33;;;20.17;;
17414;SDS011;8825;48.086;16.426;2023-02-15T13:08:08;22.73;;;17.90;;
17414;SDS011;8825;48.086;16.426;2023-02-15T13:11:02;21.70;;;18.03;;
17414;SDS011;8825;48.086;16.426;2023-02-15T13:13:34;22.80;;;18.53;;
17414;SDS011;8825;48.086;16.426;2023-02-15T13:16:11;22.70;;;18.73;;
17414;SDS011;8825;48.086;16.426;2023-02-15T13:18:42;21.57;;;17.63;;
17414;SDS011;8825;48.086;16.426;2023-02-15T13:21:14;24.23;;;18.87;;
17414;SDS011;8825;48.086;16.426;2023-02-15T13:23:47;24.20;;;18.80;;
17414;SDS011;8825;48.086;16.426;2023-02-15T13:26:18;23.97;;;19.27;;
17414;SDS011;8825;48.086;16.426;2023-02-15T13:28:53;25.53;;;19.77;;
17414;SDS011;8825;48.086;16.426;2023-02-15T13:31:19;24.93;;;19.47;;
17414;SDS011;8825;48.086;16.426;2023-02-15T13:33:52;23.30;;;18.37;;
17414;SDS011;8825;48.086;16.426;2023-02-15T13:36:29;22.93;;;19.00;;
17414;SDS011;8825;48.086;16.426;2023-02-15T13:39:07;23.87;;;18.37;;
17414;SDS011;8825;48.086;16.426;2023-02-15T13:41:56;22.57;;;17.97;;
17414;SDS011;8825;48.086;16.426;2023-02-15T13:44:25;24.80;;;19.77;;
17414;SDS011;8825;48.086;16.426;2023-02-15T13:49:44;20.67;;;16.60;;
17414;SDS011;8825;48.086;16.426;2023-02-15T13:52:28;23.07;;;19.03;;
17414;SDS011;8825;48.086;16.426;2023-02-15T13:55:08;23.80;;;18.90;;
17414;SDS011;8825;48.086;16.426;2023-02-15T14:00:44;26.53;;;20.73;;
17414;SDS011;8825;48.086;16.426;2023-02-15T14:06:25;24.50;;;19.17;;
17414;SDS011;8825;48.086;16.426;2023-02-15T14:12:12;27.63;;;21.60;;
17414;SDS011;8825;48.086;16.426;2023-02-15T14:14:43;27.07;;;20.73;;
17414;SDS011;8825;48.086;16.426;2023-02-15T14:20:25;25.60;;;20.50;;
17414;SDS011;8825;48.086;16.426;2023-02-15T14:25:51;24.87;;;20.67;;
17414;SDS011;8825;48.086;16.426;2023-02-15T14:28:28;30.50;;;22.23;;
17414;SDS011;8825;48.086;16.426;2023-02-15T14:33:49;26.50;;;20.43;;
17414;SDS011;8825;48.086;16.426;2023-02-15T14:36:19;27.07;;;19.70;;
17414;SDS011;8825;48.086;16.426;2023-02-15T14:41:35;24.20;;;19.30;;
17414;SDS011;8825;48.086;16.426;2023-02-15T14:44:37;26.47;;;20.13;;
17414;SDS011;8825;48.086;16.426;2023-02-15T14:47:12;24.90;;;19.57;;
17414;SDS011;8825;48.086;16.426;2023-02-15T14:49:56;29.47;;;22.07;;
17414;SDS011;8825;48.086;16.426;2023-02-15T14:52:23;25.77;;;20.47;;
17414;SDS011;8825;48.086;16.426;2023-02-15T14:54:55;22.33;;;18.87;;
17414;SDS011;8825;48.086;16.426;2023-02-15T14:57:24;26.27;;;19.70;;
17414;SDS011;8825;48.086;16.426;2023-02-15T14:59:54;26.40;;;19.13;;
17414;SDS011;8825;48.086;16.426;2023-02-15T15:02:40;24.20;;;18.63;;
17414;SDS011;8825;48.086;16.426;2023-02-15T15:05:16;24.87;;;19.77;;
17414;SDS011;8825;48.086;16.426;2023-02-15T15:07:55;26.43;;;19.60;;
17414;SDS011;8825;48.086;16.426;2023-02-15T15:10:37;28.47;;;22.67;;
17414;SDS011;8825;48.086;16.426;2023-02-15T15:18:53;25.37;;;20.03;;
17414;SDS011;8825;48.086;16.426;2023-02-15T15:35:44;29.40;;;21.37;;
17414;SDS011;8825;48.086;16.426;2023-02-15T15:46:56;28.00;;;22.23;;
17414;SDS011;8825;48.086;16.426;2023-02-15T15:49:40;29.00;;;22.27;;
17414;SDS011;8825;48.086;16.426;2023-02-15T15:52:12;28.93;;;22.90;;
17414;SDS011;8825;48.086;16.426;2023-02-15T15:54:39;30.70;;;23.93;;
17414;SDS011;8825;48.086;16.426;2023-02-15T15:59:51;28.73;;;23.20;;
17414;SDS011;8825;48.086;16.426;2023-02-15T16:02:20;28.13;;;23.03;;
17414;SDS011;8825;48.086;16.426;2023-02-15T16:04:49;32.17;;;23.90;;
17414;SDS011;8825;48.086;16.426;2023-02-15T16:09:57;29.07;;;23.03;;
17414;SDS011;8825;48.086;16.426;2023-02-15T16:12:23;32.43;;;25.27;;
17414;SDS011;8825;48.086;16.426;2023-02-15T16:14:54;30.60;;;25.17;;
17414;SDS011;8825;48.086;16.426;2023-02-15T16:17:24;31.00;;;26.13;;
17414;SDS011;8825;48.086;16.426;2023-02-15T16:19:58;31.63;;;24.87;;
17414;SDS011;8825;48.086;16.426;2023-02-15T16:22:24;37.60;;;26.93;;
17414;SDS011;8825;48.086;16.426;2023-02-15T16:25:07;31.27;;;25.33;;
17414;SDS011;8825;48.086;16.426;2023-02-15T16:27:49;33.60;;;26.70;;
17414;SDS011;8825;48.086;16.426;2023-02-15T16:30:25;34.00;;;26.40;;
17414;SDS011;8825;48.086;16.426;2023-02-15T16:33:16;32.30;;;26.10;;
17414;SDS011;8825;48.086;16.426;2023-02-15T16:38:34;32.23;;;26.60;;
17414;SDS011;8825;48.086;16.426;2023-02-15T16:41:21;33.57;;;26.80;;
17414;SDS011;8825;48.086;16.426;2023-02-15T16:43:57;34.43;;;27.67;;
17414;SDS011;8825;48.086;16.426;2023-02-15T16:46:28;37.67;;;28.83;;
17414;SDS011;8825;48.086;16.426;2023-02-15T16:48:59;34.33;;;27.70;;
17414;SDS011;8825;48.086;16.426;2023-02-15T16:51:29;36.03;;;29.17;;
17414;SDS011;8825;48.086;16.426;2023-02-15T16:54:04;34.93;;;27.83;;
17414;SDS011;8825;48.086;16.426;2023-02-15T16:56:32;34.50;;;27.47;;
17414;SDS011;8825;48.086;16.426;2023-02-15T16:59:01;37.40;;;28.10;;
17414;SDS011;8825;48.086;16.426;2023-02-15T17:01:30;35.70;;;27.93;;
17414;SDS011;8825;48.086;16.426;2023-02-15T17:04:13;34.67;;;26.63;;
17414;SDS011;8825;48.086;16.426;2023-02-15T17:06:42;34.90;;;28.13;;
17414;SDS011;8825;48.086;16.426;2023-02-15T17:09:16;36.80;;;28.13;;
17414;SDS011;8825;48.086;16.426;2023-02-15T17:11:47;35.07;;;28.17;;
17414;SDS011;8825;48.086;16.426;2023-02-15T17:14:18;35.77;;;28.30;;
17414;SDS011;8825;48.086;16.426;2023-02-15T17:16:54;35.67;;;29.30;;
17414;SDS011;8825;48.086;16.426;2023-02-15T17:19:33;39.20;;;31.30;;
17414;SDS011;8825;48.086;16.426;2023-02-15T17:22:03;46.57;;;36.57;;
17414;SDS011;8825;48.086;16.426;2023-02-15T17:24:38;47.43;;;39.43;;
17414;SDS011;8825;48.086;16.426;2023-02-15T17:27:14;47.83;;;39.63;;
17414;SDS011;8825;48.086;16.426;2023-02-15T17:29:46;53.70;;;42.77;;
17414;SDS011;8825;48.086;16.426;2023-02-15T17:32:22;52.33;;;41.53;;
17414;SDS011;8825;48.086;16.426;2023-02-15T17:35:14;74.67;;;57.00;;
17414;SDS011;8825;48.086;16.426;2023-02-15T17:37:26;91.63;;;68.73;;
17414;SDS011;8825;48.086;16.426;2023-02-15T17:39:56;83.63;;;63.93;;
17414;SDS011;8825;48.086;16.426;2023-02-15T17:42:25;77.33;;;60.23;;
17414;SDS011;8825;48.086;16.426;2023-02-15T17:44:52;76.40;;;62.13;;
17414;SDS011;8825;48.086;16.426;2023-02-15T17:50:08;65.52;;;48.42;;
17414;SDS011;8825;48.086;16.426;2023-02-15T17:52:37;48.83;;;38.50;;